sensor_id;sensor_type;location;lat;lon;timestamp;P1;durP1;ratioP1;P2;durP2;ratioP2
19030;SDS011;9648;51.130;13.978;2023-09-18T00:02:10;4.50;;;3.93;;
19030;SDS011;9648;51.130;13.978;2023-09-18T00:04:37;4.75;;;3.80;;
19030;SDS011;9648;51.130;13.978;2023-09-18T00:07:04;5.28;;;4.05;;
19030;SDS011;9648;51.130;13.978;2023-09-18T00:09:31;4.80;;;4.10;;
19030;SDS011;9648;51.130;13.978;2023-09-18T00:11:57;5.32;;;3.88;;
19030;SDS011;9648;51.130;13.978;2023-09-18T00:14:26;4.97;;;4.10;;
19030;SDS011;9648;51.130;13.978;2023-09-18T00:16:52;5.23;;;4.27;;
19030;SDS011;9648;51.130;13.978;2023-09-18T00:19:22;5.18;;;3.80;;
19030;SDS011;9648;51.130;13.978;2023-09-18T00:21:49;4.60;;;4.00;;
19030;SDS011;9648;51.130;13.978;2023-09-18T00:24:17;4.38;;;3.97;;
19030;SDS011;9648;51.130;13.978;2023-09-18T00:26:43;4.70;;;4.20;;
19030;SDS011;9648;51.130;13.978;2023-09-18T00:29:11;5.15;;;4.15;;
19030;SDS011;9648;51.130;13.978;2023-09-18T00:31:39;5.37;;;4.33;;
19030;SDS011;9648;51.130;13.978;2023-09-18T00:34:06;5.50;;;4.40;;
19030;SDS011;9648;51.130;13.978;2023-09-18T00:36:32;4.45;;;4.00;;
19030;SDS011;9648;51.130;13.978;2023-09-18T00:38:59;4.38;;;3.80;;
19030;SDS011;9648;51.130;13.978;2023-09-18T00:41:26;5.37;;;4.07;;
19030;SDS011;9648;51.130;13.978;2023-09-18T00:43:52;4.82;;;4.10;;
19030;SDS011;9648;51.130;13.978;2023-09-18T00:46:19;4.80;;;4.10;;
19030;SDS011;9648;51.130;13.978;2023-09-18T00:48:48;5.40;;;4.30;;
19030;SDS011;9648;51.130;13.978;2023-09-18T00:51:15;5.43;;;4.40;;
19030;SDS011;9648;51.130;13.978;2023-09-18T00:53:43;6.43;;;4.60;;
19030;SDS011;9648;51.130;13.978;2023-09-18T00:56:13;5.20;;;4.30;;
19030;SDS011;9648;51.130;13.978;2023-09-18T00:58:40;5.75;;;4.07;;
19030;SDS011;9648;51.130;13.978;2023-09-18T01:01:07;5.22;;;4.38;;
19030;SDS011;9648;51.130;13.978;2023-09-18T01:03:35;5.82;;;4.22;;
19030;SDS011;9648;51.130;13.978;2023-09-18T01:06:04;6.00;;;4.40;;
19030;SDS011;9648;51.130;13.978;2023-09-18T01:08:31;5.13;;;4.38;;
19030;SDS011;9648;51.130;13.978;2023-09-18T01:11:00;5.60;;;4.10;;
19030;SDS011;9648;51.130;13.978;2023-09-18T01:13:35;5.77;;;4.50;;
19030;SDS011;9648;51.130;13.978;2023-09-18T01:16:08;5.57;;;4.28;;
19030;SDS011;9648;51.130;13.978;2023-09-18T01:18:48;4.63;;;4.15;;
19030;SDS011;9648;51.130;13.978;2023-09-18T01:21:17;5.20;;;4.53;;
19030;SDS011;9648;51.130;13.978;2023-09-18T01:23:46;6.10;;;4.20;;
19030;SDS011;9648;51.130;13.978;2023-09-18T01:26:14;5.18;;;4.35;;
19030;SDS011;9648;51.130;13.978;2023-09-18T01:28:40;5.53;;;4.18;;
19030;SDS011;9648;51.130;13.978;2023-09-18T01:31:07;5.07;;;4.22;;
19030;SDS011;9648;51.130;13.978;2023-09-18T01:33:34;5.38;;;4.28;;
19030;SDS011;9648;51.130;13.978;2023-09-18T01:36:03;4.80;;;4.10;;
19030;SDS011;9648;51.130;13.978;2023-09-18T01:38:32;6.15;;;4.50;;
19030;SDS011;9648;51.130;13.978;2023-09-18T01:41:01;4.40;;;4.00;;
19030;SDS011;9648;51.130;13.978;2023-09-18T01:43:28;5.20;;;4.10;;
19030;SDS011;9648;51.130;13.978;2023-09-18T01:45:55;4.93;;;4.07;;
19030;SDS011;9648;51.130;13.978;2023-09-18T01:48:22;5.40;;;4.45;;
19030;SDS011;9648;51.130;13.978;2023-09-18T01:50:49;5.83;;;4.13;;
19030;SDS011;9648;51.130;13.978;2023-09-18T01:53:16;4.85;;;4.35;;
19030;SDS011;9648;51.130;13.978;2023-09-18T01:55:42;6.32;;;4.50;;
19030;SDS011;9648;51.130;13.978;2023-09-18T01:58:11;4.60;;;4.10;;
19030;SDS011;9648;51.130;13.978;2023-09-18T02:00:39;4.97;;;4.32;;
19030;SDS011;9648;51.130;13.978;2023-09-18T02:03:06;5.60;;;4.72;;
19030;SDS011;9648;51.130;13.978;2023-09-18T02:05:32;4.97;;;4.47;;
19030;SDS011;9648;51.130;13.978;2023-09-18T02:08:00;5.57;;;4.60;;
19030;SDS011;9648;51.130;13.978;2023-09-18T02:10:27;4.85;;;4.35;;
19030;SDS011;9648;51.130;13.978;2023-09-18T02:12:54;5.32;;;4.68;;
19030;SDS011;9648;51.130;13.978;2023-09-18T02:15:22;5.57;;;4.50;;
19030;SDS011;9648;51.130;13.978;2023-09-18T02:17:49;5.95;;;4.60;;
19030;SDS011;9648;51.130;13.978;2023-09-18T02:20:16;5.30;;;4.38;;
19030;SDS011;9648;51.130;13.978;2023-09-18T02:22:43;5.63;;;4.50;;
19030;SDS011;9648;51.130;13.978;2023-09-18T02:25:12;4.95;;;4.35;;
19030;SDS011;9648;51.130;13.978;2023-09-18T02:27:38;5.13;;;4.53;;
19030;SDS011;9648;51.130;13.978;2023-09-18T02:30:06;5.60;;;4.80;;
19030;SDS011;9648;51.130;13.978;2023-09-18T02:32:36;5.68;;;4.88;;
19030;SDS011;9648;51.130;13.978;2023-09-18T02:35:03;5.30;;;4.43;;
19030;SDS011;9648;51.130;13.978;2023-09-18T02:37:33;5.25;;;4.60;;
19030;SDS011;9648;51.130;13.978;2023-09-18T02:40:00;5.07;;;4.47;;
19030;SDS011;9648;51.130;13.978;2023-09-18T02:42:27;5.53;;;4.82;;
19030;SDS011;9648;51.130;13.978;2023-09-18T02:44:54;5.35;;;4.80;;
19030;SDS011;9648;51.130;13.978;2023-09-18T02:47:21;6.15;;;4.88;;
19030;SDS011;9648;51.130;13.978;2023-09-18T02:49:49;5.88;;;4.63;;
19030;SDS011;9648;51.130;13.978;2023-09-18T02:52:15;5.38;;;4.68;;
19030;SDS011;9648;51.130;13.978;2023-09-18T02:54:42;5.38;;;4.80;;
19030;SDS011;9648;51.130;13.978;2023-09-18T02:57:09;5.82;;;4.63;;
19030;SDS011;9648;51.130;13.978;2023-09-18T02:59:35;6.10;;;4.47;;
19030;SDS011;9648;51.130;13.978;2023-09-18T03:02:02;5.13;;;4.40;;
19030;SDS011;9648;51.130;13.978;2023-09-18T03:04:30;5.10;;;4.50;;
19030;SDS011;9648;51.130;13.978;2023-09-18T03:06:58;5.80;;;4.90;;
19030;SDS011;9648;51.130;13.978;2023-09-18T03:09:25;6.18;;;4.70;;
19030;SDS011;9648;51.130;13.978;2023-09-18T03:11:52;5.32;;;4.63;;
19030;SDS011;9648;51.130;13.978;2023-09-18T03:14:19;5.57;;;4.65;;
19030;SDS011;9648;51.130;13.978;2023-09-18T03:16:46;6.27;;;4.70;;
19030;SDS011;9648;51.130;13.978;2023-09-18T03:19:12;6.43;;;4.82;;
19030;SDS011;9648;51.130;13.978;2023-09-18T03:21:39;5.25;;;4.63;;
19030;SDS011;9648;51.130;13.978;2023-09-18T03:24:07;7.10;;;4.95;;
19030;SDS011;9648;51.130;13.978;2023-09-18T03:26:35;6.57;;;5.05;;
19030;SDS011;9648;51.130;13.978;2023-09-18T03:29:01;5.95;;;4.85;;
19030;SDS011;9648;51.130;13.978;2023-09-18T03:31:29;5.83;;;4.57;;
19030;SDS011;9648;51.130;13.978;2023-09-18T03:33:55;5.05;;;4.55;;
19030;SDS011;9648;51.130;13.978;2023-09-18T03:36:22;5.20;;;4.60;;
19030;SDS011;9648;51.130;13.978;2023-09-18T03:38:49;5.80;;;4.82;;
19030;SDS011;9648;51.130;13.978;2023-09-18T03:41:17;5.60;;;4.83;;
19030;SDS011;9648;51.130;13.978;2023-09-18T03:43:44;6.00;;;4.78;;
19030;SDS011;9648;51.130;13.978;2023-09-18T03:46:11;5.85;;;5.15;;
19030;SDS011;9648;51.130;13.978;2023-09-18T03:48:37;7.25;;;4.90;;
19030;SDS011;9648;51.130;13.978;2023-09-18T03:51:04;6.72;;;5.30;;
19030;SDS011;9648;51.130;13.978;2023-09-18T03:53:32;5.22;;;4.70;;
19030;SDS011;9648;51.130;13.978;2023-09-18T03:55:59;6.90;;;4.85;;
19030;SDS011;9648;51.130;13.978;2023-09-18T03:58:27;5.18;;;4.63;;
19030;SDS011;9648;51.130;13.978;2023-09-18T04:00:54;5.03;;;4.50;;
19030;SDS011;9648;51.130;13.978;2023-09-18T04:03:21;5.53;;;4.97;;
19030;SDS011;9648;51.130;13.978;2023-09-18T04:05:48;6.07;;;4.95;;
19030;SDS011;9648;51.130;13.978;2023-09-18T04:08:15;5.75;;;5.03;;
19030;SDS011;9648;51.130;13.978;2023-09-18T04:10:41;5.78;;;4.82;;
19030;SDS011;9648;51.130;13.978;2023-09-18T04:13:10;6.53;;;5.20;;
19030;SDS011;9648;51.130;13.978;2023-09-18T04:15:38;5.78;;;5.18;;
19030;SDS011;9648;51.130;13.978;2023-09-18T04:18:05;6.70;;;5.30;;
19030;SDS011;9648;51.130;13.978;2023-09-18T04:20:32;5.70;;;5.10;;
19030;SDS011;9648;51.130;13.978;2023-09-18T04:23:16;5.70;;;4.95;;
19030;SDS011;9648;51.130;13.978;2023-09-18T04:25:44;6.05;;;5.20;;
19030;SDS011;9648;51.130;13.978;2023-09-18T04:28:11;6.32;;;5.38;;
19030;SDS011;9648;51.130;13.978;2023-09-18T04:30:40;5.85;;;5.13;;
19030;SDS011;9648;51.130;13.978;2023-09-18T04:33:06;6.55;;;5.50;;
19030;SDS011;9648;51.130;13.978;2023-09-18T04:35:33;5.60;;;4.95;;
19030;SDS011;9648;51.130;13.978;2023-09-18T04:38:00;6.70;;;5.30;;
19030;SDS011;9648;51.130;13.978;2023-09-18T04:40:27;6.05;;;5.35;;
19030;SDS011;9648;51.130;13.978;2023-09-18T04:42:57;6.25;;;5.13;;
19030;SDS011;9648;51.130;13.978;2023-09-18T04:45:24;6.00;;;5.40;;
19030;SDS011;9648;51.130;13.978;2023-09-18T04:47:52;7.07;;;5.78;;
19030;SDS011;9648;51.130;13.978;2023-09-18T04:50:19;6.67;;;5.80;;
19030;SDS011;9648;51.130;13.978;2023-09-18T04:52:46;6.32;;;5.60;;
19030;SDS011;9648;51.130;13.978;2023-09-18T04:55:13;8.60;;;5.97;;
19030;SDS011;9648;51.130;13.978;2023-09-18T04:57:40;6.95;;;6.13;;
19030;SDS011;9648;51.130;13.978;2023-09-18T05:00:07;6.53;;;5.80;;
19030;SDS011;9648;51.130;13.978;2023-09-18T05:02:38;7.47;;;5.90;;
19030;SDS011;9648;51.130;13.978;2023-09-18T05:05:07;7.60;;;5.80;;
19030;SDS011;9648;51.130;13.978;2023-09-18T05:07:34;6.82;;;6.00;;
19030;SDS011;9648;51.130;13.978;2023-09-18T05:10:01;7.32;;;5.90;;
19030;SDS011;9648;51.130;13.978;2023-09-18T05:12:29;6.38;;;5.50;;
19030;SDS011;9648;51.130;13.978;2023-09-18T05:14:57;6.75;;;5.50;;
19030;SDS011;9648;51.130;13.978;2023-09-18T05:17:38;7.72;;;6.07;;
19030;SDS011;9648;51.130;13.978;2023-09-18T05:20:09;8.50;;;6.15;;
19030;SDS011;9648;51.130;13.978;2023-09-18T05:22:38;7.05;;;5.93;;
19030;SDS011;9648;51.130;13.978;2023-09-18T05:25:07;7.93;;;6.13;;
19030;SDS011;9648;51.130;13.978;2023-09-18T05:27:35;7.38;;;6.40;;
19030;SDS011;9648;51.130;13.978;2023-09-18T05:30:09;8.20;;;6.65;;
19030;SDS011;9648;51.130;13.978;2023-09-18T05:32:37;7.03;;;6.00;;
19030;SDS011;9648;51.130;13.978;2023-09-18T05:35:04;7.70;;;6.18;;
19030;SDS011;9648;51.130;13.978;2023-09-18T05:37:36;10.77;;;6.65;;
19030;SDS011;9648;51.130;13.978;2023-09-18T05:40:03;6.43;;;5.80;;
19030;SDS011;9648;51.130;13.978;2023-09-18T05:42:31;8.27;;;6.13;;
19030;SDS011;9648;51.130;13.978;2023-09-18T05:44:58;6.95;;;6.25;;
19030;SDS011;9648;51.130;13.978;2023-09-18T05:47:25;7.53;;;6.10;;
19030;SDS011;9648;51.130;13.978;2023-09-18T05:49:52;7.00;;;6.10;;
19030;SDS011;9648;51.130;13.978;2023-09-18T05:52:18;7.13;;;5.72;;
19030;SDS011;9648;51.130;13.978;2023-09-18T05:54:48;7.97;;;5.90;;
19030;SDS011;9648;51.130;13.978;2023-09-18T05:57:15;6.03;;;5.28;;
19030;SDS011;9648;51.130;13.978;2023-09-18T05:59:42;6.88;;;5.95;;
19030;SDS011;9648;51.130;13.978;2023-09-18T06:02:10;6.63;;;5.70;;
19030;SDS011;9648;51.130;13.978;2023-09-18T06:04:36;6.65;;;5.93;;
19030;SDS011;9648;51.130;13.978;2023-09-18T06:07:03;7.95;;;6.05;;
19030;SDS011;9648;51.130;13.978;2023-09-18T06:09:30;7.47;;;5.60;;
19030;SDS011;9648;51.130;13.978;2023-09-18T06:11:59;6.45;;;5.38;;
19030;SDS011;9648;51.130;13.978;2023-09-18T06:14:26;6.47;;;5.72;;
19030;SDS011;9648;51.130;13.978;2023-09-18T06:16:52;7.22;;;5.70;;
19030;SDS011;9648;51.130;13.978;2023-09-18T06:19:19;6.50;;;5.67;;
19030;SDS011;9648;51.130;13.978;2023-09-18T06:21:46;6.85;;;5.60;;
19030;SDS011;9648;51.130;13.978;2023-09-18T06:24:13;7.18;;;5.47;;
19030;SDS011;9648;51.130;13.978;2023-09-18T06:26:40;6.53;;;5.70;;
19030;SDS011;9648;51.130;13.978;2023-09-18T06:29:08;7.10;;;5.97;;
19030;SDS011;9648;51.130;13.978;2023-09-18T06:31:35;6.97;;;5.78;;
19030;SDS011;9648;51.130;13.978;2023-09-18T06:34:02;6.30;;;5.47;;
19030;SDS011;9648;51.130;13.978;2023-09-18T06:36:29;6.53;;;5.70;;
19030;SDS011;9648;51.130;13.978;2023-09-18T06:38:56;6.65;;;5.65;;
19030;SDS011;9648;51.130;13.978;2023-09-18T06:41:23;7.33;;;5.40;;
19030;SDS011;9648;51.130;13.978;2023-09-18T06:43:50;6.55;;;5.20;;
19030;SDS011;9648;51.130;13.978;2023-09-18T06:46:18;8.45;;;6.32;;
19030;SDS011;9648;51.130;13.978;2023-09-18T06:48:45;6.85;;;5.22;;
19030;SDS011;9648;51.130;13.978;2023-09-18T06:51:14;7.00;;;5.80;;
19030;SDS011;9648;51.130;13.978;2023-09-18T06:53:41;6.72;;;5.43;;
19030;SDS011;9648;51.130;13.978;2023-09-18T06:56:09;9.32;;;5.70;;
19030;SDS011;9648;51.130;13.978;2023-09-18T06:58:37;7.47;;;6.10;;
19030;SDS011;9648;51.130;13.978;2023-09-18T07:01:04;6.47;;;5.38;;
19030;SDS011;9648;51.130;13.978;2023-09-18T07:03:33;7.23;;;5.80;;
19030;SDS011;9648;51.130;13.978;2023-09-18T07:06:01;6.57;;;5.40;;
19030;SDS011;9648;51.130;13.978;2023-09-18T07:08:29;7.20;;;5.63;;
19030;SDS011;9648;51.130;13.978;2023-09-18T07:10:56;7.95;;;5.50;;
19030;SDS011;9648;51.130;13.978;2023-09-18T07:13:23;7.07;;;5.95;;
19030;SDS011;9648;51.130;13.978;2023-09-18T07:15:49;7.57;;;5.80;;
19030;SDS011;9648;51.130;13.978;2023-09-18T07:18:16;7.75;;;5.85;;
19030;SDS011;9648;51.130;13.978;2023-09-18T07:20:44;7.67;;;5.63;;
19030;SDS011;9648;51.130;13.978;2023-09-18T07:23:11;6.85;;;5.60;;
19030;SDS011;9648;51.130;13.978;2023-09-18T07:25:38;7.47;;;5.65;;
19030;SDS011;9648;51.130;13.978;2023-09-18T07:28:05;7.15;;;5.40;;
19030;SDS011;9648;51.130;13.978;2023-09-18T07:30:33;8.30;;;5.85;;
19030;SDS011;9648;51.130;13.978;2023-09-18T07:33:02;7.40;;;5.82;;
19030;SDS011;9648;51.130;13.978;2023-09-18T07:35:30;8.50;;;5.95;;
19030;SDS011;9648;51.130;13.978;2023-09-18T07:37:58;8.65;;;5.70;;
19030;SDS011;9648;51.130;13.978;2023-09-18T07:40:25;7.90;;;5.38;;
19030;SDS011;9648;51.130;13.978;2023-09-18T07:42:51;7.25;;;5.45;;
19030;SDS011;9648;51.130;13.978;2023-09-18T07:45:19;7.40;;;5.47;;
19030;SDS011;9648;51.130;13.978;2023-09-18T07:47:45;9.43;;;5.30;;
19030;SDS011;9648;51.130;13.978;2023-09-18T07:50:12;6.10;;;5.45;;
19030;SDS011;9648;51.130;13.978;2023-09-18T07:52:39;7.00;;;5.67;;
19030;SDS011;9648;51.130;13.978;2023-09-18T07:55:08;6.47;;;5.18;;
19030;SDS011;9648;51.130;13.978;2023-09-18T07:57:35;8.57;;;5.40;;
19030;SDS011;9648;51.130;13.978;2023-09-18T08:00:02;6.30;;;5.60;;
19030;SDS011;9648;51.130;13.978;2023-09-18T08:02:32;8.00;;;5.50;;
19030;SDS011;9648;51.130;13.978;2023-09-18T08:05:00;6.10;;;5.22;;
19030;SDS011;9648;51.130;13.978;2023-09-18T08:07:27;6.13;;;5.45;;
19030;SDS011;9648;51.130;13.978;2023-09-18T08:09:54;6.40;;;5.00;;
19030;SDS011;9648;51.130;13.978;2023-09-18T08:12:22;6.68;;;4.90;;
19030;SDS011;9648;51.130;13.978;2023-09-18T08:14:49;6.28;;;5.15;;
19030;SDS011;9648;51.130;13.978;2023-09-18T08:17:16;5.80;;;4.85;;
19030;SDS011;9648;51.130;13.978;2023-09-18T08:19:43;6.68;;;5.10;;
19030;SDS011;9648;51.130;13.978;2023-09-18T08:22:10;5.75;;;4.63;;
19030;SDS011;9648;51.130;13.978;2023-09-18T08:24:40;6.38;;;4.88;;
19030;SDS011;9648;51.130;13.978;2023-09-18T08:27:07;7.40;;;4.97;;
19030;SDS011;9648;51.130;13.978;2023-09-18T08:29:35;6.23;;;4.90;;
19030;SDS011;9648;51.130;13.978;2023-09-18T08:32:02;5.72;;;4.75;;
19030;SDS011;9648;51.130;13.978;2023-09-18T08:34:29;8.27;;;5.30;;
19030;SDS011;9648;51.130;13.978;2023-09-18T08:36:55;6.72;;;4.85;;
19030;SDS011;9648;51.130;13.978;2023-09-18T08:39:22;6.25;;;4.97;;
19030;SDS011;9648;51.130;13.978;2023-09-18T08:41:49;6.25;;;4.70;;
19030;SDS011;9648;51.130;13.978;2023-09-18T08:44:20;6.75;;;4.88;;
19030;SDS011;9648;51.130;13.978;2023-09-18T08:46:53;5.95;;;4.72;;
19030;SDS011;9648;51.130;13.978;2023-09-18T08:49:20;9.20;;;5.00;;
19030;SDS011;9648;51.130;13.978;2023-09-18T08:51:49;6.00;;;4.80;;
19030;SDS011;9648;51.130;13.978;2023-09-18T08:54:16;5.85;;;4.55;;
19030;SDS011;9648;51.130;13.978;2023-09-18T08:56:44;5.88;;;4.70;;
19030;SDS011;9648;51.130;13.978;2023-09-18T08:59:10;5.90;;;4.90;;
19030;SDS011;9648;51.130;13.978;2023-09-18T09:01:38;7.38;;;4.55;;
19030;SDS011;9648;51.130;13.978;2023-09-18T09:04:06;6.13;;;4.72;;
19030;SDS011;9648;51.130;13.978;2023-09-18T09:06:33;7.35;;;4.60;;
19030;SDS011;9648;51.130;13.978;2023-09-18T09:09:01;7.22;;;4.70;;
19030;SDS011;9648;51.130;13.978;2023-09-18T09:11:28;6.10;;;4.72;;
19030;SDS011;9648;51.130;13.978;2023-09-18T09:14:08;6.00;;;4.70;;
19030;SDS011;9648;51.130;13.978;2023-09-18T09:16:41;4.82;;;4.32;;
19030;SDS011;9648;51.130;13.978;2023-09-18T09:19:13;5.30;;;4.40;;
19030;SDS011;9648;51.130;13.978;2023-09-18T09:21:41;6.78;;;4.65;;
19030;SDS011;9648;51.130;13.978;2023-09-18T09:24:09;5.10;;;4.30;;
19030;SDS011;9648;51.130;13.978;2023-09-18T09:26:38;4.95;;;4.28;;
19030;SDS011;9648;51.130;13.978;2023-09-18T09:29:14;5.82;;;4.35;;
19030;SDS011;9648;51.130;13.978;2023-09-18T09:31:43;6.07;;;4.60;;
19030;SDS011;9648;51.130;13.978;2023-09-18T09:34:10;5.65;;;4.53;;
19030;SDS011;9648;51.130;13.978;2023-09-18T09:39:19;6.75;;;4.38;;
19030;SDS011;9648;51.130;13.978;2023-09-18T09:41:49;7.30;;;4.30;;
19030;SDS011;9648;51.130;13.978;2023-09-18T09:44:17;5.15;;;4.20;;
19030;SDS011;9648;51.130;13.978;2023-09-18T09:46:46;6.13;;;4.50;;
19030;SDS011;9648;51.130;13.978;2023-09-18T09:49:13;4.65;;;4.03;;
19030;SDS011;9648;51.130;13.978;2023-09-18T09:51:41;4.57;;;3.90;;
19030;SDS011;9648;51.130;13.978;2023-09-18T09:54:10;7.80;;;4.47;;
19030;SDS011;9648;51.130;13.978;2023-09-18T09:56:41;6.73;;;4.30;;
19030;SDS011;9648;51.130;13.978;2023-09-18T09:59:10;5.57;;;4.10;;
19030;SDS011;9648;51.130;13.978;2023-09-18T10:01:38;7.47;;;4.30;;
19030;SDS011;9648;51.130;13.978;2023-09-18T10:04:08;7.50;;;4.57;;
19030;SDS011;9648;51.130;13.978;2023-09-18T10:06:36;7.72;;;4.53;;
19030;SDS011;9648;51.130;13.978;2023-09-18T10:09:04;6.15;;;4.65;;
19030;SDS011;9648;51.130;13.978;2023-09-18T10:11:34;5.95;;;4.30;;
19030;SDS011;9648;51.130;13.978;2023-09-18T10:14:07;6.68;;;4.30;;
19030;SDS011;9648;51.130;13.978;2023-09-18T10:16:40;5.45;;;4.15;;
19030;SDS011;9648;51.130;13.978;2023-09-18T10:19:11;6.20;;;3.95;;
19030;SDS011;9648;51.130;13.978;2023-09-18T10:21:47;4.20;;;3.80;;
19030;SDS011;9648;51.130;13.978;2023-09-18T10:24:25;6.07;;;4.25;;
19030;SDS011;9648;51.130;13.978;2023-09-18T10:26:58;5.97;;;4.00;;
19030;SDS011;9648;51.130;13.978;2023-09-18T10:29:25;6.38;;;4.43;;
19030;SDS011;9648;51.130;13.978;2023-09-18T10:31:53;4.45;;;3.90;;
19030;SDS011;9648;51.130;13.978;2023-09-18T10:34:20;5.63;;;4.00;;
19030;SDS011;9648;51.130;13.978;2023-09-18T10:36:50;5.65;;;4.00;;
19030;SDS011;9648;51.130;13.978;2023-09-18T10:39:17;5.10;;;3.97;;
19030;SDS011;9648;51.130;13.978;2023-09-18T10:41:49;5.30;;;4.03;;
19030;SDS011;9648;51.130;13.978;2023-09-18T10:44:19;5.40;;;3.73;;
19030;SDS011;9648;51.130;13.978;2023-09-18T10:46:46;4.57;;;3.80;;
19030;SDS011;9648;51.130;13.978;2023-09-18T10:49:14;4.85;;;3.42;;
19030;SDS011;9648;51.130;13.978;2023-09-18T10:51:41;5.45;;;3.67;;
19030;SDS011;9648;51.130;13.978;2023-09-18T10:54:10;5.30;;;3.70;;
19030;SDS011;9648;51.130;13.978;2023-09-18T10:56:37;6.32;;;3.72;;
19030;SDS011;9648;51.130;13.978;2023-09-18T10:59:06;5.30;;;3.55;;
19030;SDS011;9648;51.130;13.978;2023-09-18T11:01:35;5.05;;;3.92;;
19030;SDS011;9648;51.130;13.978;2023-09-18T11:04:03;4.05;;;3.63;;
19030;SDS011;9648;51.130;13.978;2023-09-18T11:09:29;5.25;;;3.78;;
19030;SDS011;9648;51.130;13.978;2023-09-18T11:12:02;5.73;;;4.00;;
19030;SDS011;9648;51.130;13.978;2023-09-18T11:14:49;6.47;;;3.88;;
19030;SDS011;9648;51.130;13.978;2023-09-18T11:17:30;5.70;;;3.80;;
19030;SDS011;9648;51.130;13.978;2023-09-18T11:20:05;4.93;;;3.78;;
19030;SDS011;9648;51.130;13.978;2023-09-18T11:22:35;4.82;;;3.90;;
19030;SDS011;9648;51.130;13.978;2023-09-18T11:28:04;6.32;;;3.72;;
19030;SDS011;9648;51.130;13.978;2023-09-18T11:30:33;5.13;;;3.90;;
19030;SDS011;9648;51.130;13.978;2023-09-18T11:33:03;6.15;;;4.20;;
19030;SDS011;9648;51.130;13.978;2023-09-18T11:35:31;5.17;;;3.90;;
19030;SDS011;9648;51.130;13.978;2023-09-18T11:38:06;5.40;;;4.18;;
19030;SDS011;9648;51.130;13.978;2023-09-18T11:40:34;5.43;;;3.92;;
19030;SDS011;9648;51.130;13.978;2023-09-18T11:43:20;6.20;;;4.13;;
19030;SDS011;9648;51.130;13.978;2023-09-18T11:45:50;5.95;;;4.10;;
19030;SDS011;9648;51.130;13.978;2023-09-18T11:48:20;6.72;;;4.10;;
19030;SDS011;9648;51.130;13.978;2023-09-18T11:50:49;5.47;;;4.13;;
19030;SDS011;9648;51.130;13.978;2023-09-18T11:53:19;6.97;;;4.10;;
19030;SDS011;9648;51.130;13.978;2023-09-18T11:55:46;6.47;;;4.00;;
19030;SDS011;9648;51.130;13.978;2023-09-18T11:58:13;4.57;;;3.80;;
19030;SDS011;9648;51.130;13.978;2023-09-18T12:00:41;5.50;;;4.00;;
19030;SDS011;9648;51.130;13.978;2023-09-18T12:03:14;7.20;;;3.88;;
19030;SDS011;9648;51.130;13.978;2023-09-18T12:05:51;7.75;;;4.03;;
19030;SDS011;9648;51.130;13.978;2023-09-18T12:08:20;6.35;;;4.22;;
19030;SDS011;9648;51.130;13.978;2023-09-18T12:10:48;6.22;;;4.00;;
19030;SDS011;9648;51.130;13.978;2023-09-18T12:13:16;8.95;;;3.90;;
19030;SDS011;9648;51.130;13.978;2023-09-18T12:15:43;6.60;;;4.20;;
19030;SDS011;9648;51.130;13.978;2023-09-18T12:18:10;7.15;;;4.20;;
19030;SDS011;9648;51.130;13.978;2023-09-18T12:20:38;6.07;;;4.23;;
19030;SDS011;9648;51.130;13.978;2023-09-18T12:23:12;5.70;;;4.10;;
19030;SDS011;9648;51.130;13.978;2023-09-18T12:25:39;4.72;;;3.65;;
19030;SDS011;9648;51.130;13.978;2023-09-18T12:28:06;6.95;;;4.20;;
19030;SDS011;9648;51.130;13.978;2023-09-18T12:30:33;5.30;;;3.60;;
19030;SDS011;9648;51.130;13.978;2023-09-18T12:33:00;4.47;;;4.03;;
19030;SDS011;9648;51.130;13.978;2023-09-18T12:35:28;5.30;;;3.90;;
19030;SDS011;9648;51.130;13.978;2023-09-18T12:37:56;6.85;;;4.30;;
19030;SDS011;9648;51.130;13.978;2023-09-18T12:40:25;5.60;;;4.00;;
19030;SDS011;9648;51.130;13.978;2023-09-18T12:42:53;5.25;;;4.00;;
19030;SDS011;9648;51.130;13.978;2023-09-18T12:45:21;7.10;;;4.07;;
19030;SDS011;9648;51.130;13.978;2023-09-18T12:47:48;7.28;;;4.10;;
19030;SDS011;9648;51.130;13.978;2023-09-18T12:50:16;6.70;;;4.20;;
19030;SDS011;9648;51.130;13.978;2023-09-18T12:52:43;5.88;;;4.30;;
19030;SDS011;9648;51.130;13.978;2023-09-18T12:55:20;4.90;;;4.40;;
19030;SDS011;9648;51.130;13.978;2023-09-18T12:57:48;8.77;;;4.38;;
19030;SDS011;9648;51.130;13.978;2023-09-18T13:00:15;7.50;;;4.60;;
19030;SDS011;9648;51.130;13.978;2023-09-18T13:02:45;7.67;;;4.33;;
19030;SDS011;9648;51.130;13.978;2023-09-18T13:05:18;6.90;;;4.22;;
19030;SDS011;9648;51.130;13.978;2023-09-18T13:07:46;5.63;;;4.30;;
19030;SDS011;9648;51.130;13.978;2023-09-18T13:10:13;5.45;;;4.28;;
19030;SDS011;9648;51.130;13.978;2023-09-18T13:12:41;6.68;;;4.50;;
19030;SDS011;9648;51.130;13.978;2023-09-18T13:15:11;7.47;;;4.22;;
19030;SDS011;9648;51.130;13.978;2023-09-18T13:17:39;5.03;;;4.07;;
19030;SDS011;9648;51.130;13.978;2023-09-18T13:20:09;5.20;;;4.38;;
19030;SDS011;9648;51.130;13.978;2023-09-18T13:22:41;6.53;;;4.07;;
19030;SDS011;9648;51.130;13.978;2023-09-18T13:25:18;6.05;;;4.30;;
19030;SDS011;9648;51.130;13.978;2023-09-18T13:27:45;6.00;;;4.50;;
19030;SDS011;9648;51.130;13.978;2023-09-18T13:30:13;6.63;;;4.40;;
19030;SDS011;9648;51.130;13.978;2023-09-18T13:32:42;7.05;;;4.50;;
19030;SDS011;9648;51.130;13.978;2023-09-18T13:35:09;4.82;;;4.32;;
19030;SDS011;9648;51.130;13.978;2023-09-18T13:37:38;6.05;;;4.60;;
19030;SDS011;9648;51.130;13.978;2023-09-18T13:40:06;4.82;;;4.32;;
19030;SDS011;9648;51.130;13.978;2023-09-18T13:42:33;7.00;;;4.60;;
19030;SDS011;9648;51.130;13.978;2023-09-18T13:45:01;7.03;;;4.68;;
19030;SDS011;9648;51.130;13.978;2023-09-18T13:47:31;5.40;;;4.45;;
19030;SDS011;9648;51.130;13.978;2023-09-18T13:49:59;6.20;;;4.70;;
19030;SDS011;9648;51.130;13.978;2023-09-18T13:52:26;6.50;;;4.10;;
19030;SDS011;9648;51.130;13.978;2023-09-18T13:54:53;6.47;;;4.50;;
19030;SDS011;9648;51.130;13.978;2023-09-18T13:57:20;6.65;;;4.50;;
19030;SDS011;9648;51.130;13.978;2023-09-18T13:59:47;7.30;;;4.72;;
19030;SDS011;9648;51.130;13.978;2023-09-18T14:02:15;5.97;;;4.45;;
19030;SDS011;9648;51.130;13.978;2023-09-18T14:04:43;6.17;;;4.40;;
19030;SDS011;9648;51.130;13.978;2023-09-18T14:07:11;6.00;;;4.60;;
19030;SDS011;9648;51.130;13.978;2023-09-18T14:09:38;7.53;;;4.78;;
19030;SDS011;9648;51.130;13.978;2023-09-18T14:12:05;5.70;;;4.70;;
19030;SDS011;9648;51.130;13.978;2023-09-18T14:14:33;6.60;;;4.50;;
19030;SDS011;9648;51.130;13.978;2023-09-18T14:17:01;5.88;;;4.25;;
19030;SDS011;9648;51.130;13.978;2023-09-18T14:19:28;8.20;;;4.85;;
19030;SDS011;9648;51.130;13.978;2023-09-18T14:21:56;7.22;;;4.40;;
19030;SDS011;9648;51.130;13.978;2023-09-18T14:24:28;4.40;;;4.00;;
19030;SDS011;9648;51.130;13.978;2023-09-18T14:26:55;8.32;;;4.55;;
19030;SDS011;9648;51.130;13.978;2023-09-18T14:29:22;6.15;;;4.50;;
19030;SDS011;9648;51.130;13.978;2023-09-18T14:31:49;5.13;;;4.18;;
19030;SDS011;9648;51.130;13.978;2023-09-18T14:34:16;6.60;;;4.10;;
19030;SDS011;9648;51.130;13.978;2023-09-18T14:36:42;6.15;;;4.78;;
19030;SDS011;9648;51.130;13.978;2023-09-18T14:39:10;8.40;;;4.40;;
19030;SDS011;9648;51.130;13.978;2023-09-18T14:41:38;5.93;;;4.40;;
19030;SDS011;9648;51.130;13.978;2023-09-18T14:44:05;4.93;;;4.10;;
19030;SDS011;9648;51.130;13.978;2023-09-18T14:46:34;6.68;;;4.60;;
19030;SDS011;9648;51.130;13.978;2023-09-18T14:49:02;6.68;;;4.18;;
19030;SDS011;9648;51.130;13.978;2023-09-18T14:51:29;5.32;;;4.30;;
19030;SDS011;9648;51.130;13.978;2023-09-18T14:53:57;6.78;;;4.35;;
19030;SDS011;9648;51.130;13.978;2023-09-18T14:56:26;5.70;;;4.27;;
19030;SDS011;9648;51.130;13.978;2023-09-18T14:58:52;5.63;;;4.25;;
19030;SDS011;9648;51.130;13.978;2023-09-18T15:01:20;7.07;;;4.40;;
19030;SDS011;9648;51.130;13.978;2023-09-18T15:03:47;5.28;;;3.97;;